createdAt,value
2018-05-26T00:03:28.147Z,7.13
2018-05-26T00:08:12.223Z,8.13
2018-05-26T00:12:55.533Z,8.60
2018-05-26T00:17:38.891Z,9.27
2018-05-26T00:22:23.007Z,9.67
2018-05-26T00:27:06.345Z,8.07
2018-05-26T00:31:49.746Z,7.37
2018-05-26T00:36:33.830Z,7.03
2018-05-26T00:41:17.213Z,7.80
2018-05-26T00:46:00.539Z,7.47
2018-05-26T00:50:43.856Z,7.60
2018-05-26T00:55:27.165Z,7.90
2018-05-26T01:00:10.484Z,7.50
2018-05-26T01:04:54.531Z,7.20
2018-05-26T01:09:37.914Z,7.87
2018-05-26T01:14:21.286Z,6.73
2018-05-26T01:19:04.544Z,7.37
2018-05-26T01:23:47.846Z,7.43
2018-05-26T01:28:31.235Z,7.60
2018-05-26T01:33:14.555Z,10.20
2018-05-26T01:37:57.865Z,7.60
2018-05-26T01:42:41.176Z,7.50
2018-05-26T01:47:24.584Z,7.83
2018-05-26T01:52:07.849Z,8.60
2018-05-26T01:56:51.938Z,7.93
2018-05-26T02:01:35.365Z,7.03
2018-05-26T02:06:18.682Z,7.47
2018-05-26T02:11:02.761Z,7.87
2018-05-26T02:15:46.885Z,7.50
2018-05-26T02:20:30.182Z,7.70
2018-05-26T02:25:13.493Z,8.27
2018-05-26T02:29:57.588Z,7.83
2018-05-26T02:34:40.940Z,8.93
2018-05-26T02:39:24.221Z,8.73
2018-05-26T02:44:07.530Z,8.63
2018-05-26T02:48:50.859Z,8.37
2018-05-26T02:53:34.163Z,9.43
2018-05-26T02:58:17.481Z,8.40
2018-05-26T03:03:01.581Z,7.93
2018-05-26T03:07:50.503Z,9.43
2018-05-26T03:12:40.126Z,7.93
2018-05-26T03:17:24.216Z,7.93
2018-05-26T03:22:07.512Z,7.50
2018-05-26T03:26:50.823Z,7.43
2018-05-26T03:31:34.910Z,7.07
2018-05-26T03:36:18.258Z,8.77
2018-05-26T03:41:01.543Z,8.13
2018-05-26T03:45:44.857Z,7.00
2018-05-26T03:50:28.206Z,7.37
2018-05-26T03:55:33.076Z,7.10
2018-05-26T04:00:16.394Z,7.63
2018-05-26T04:04:59.781Z,6.97
2018-05-26T04:09:43.074Z,7.00
2018-05-26T04:14:27.207Z,7.27
2018-05-26T04:19:10.506Z,7.90
2018-05-26T04:23:53.862Z,6.87
2018-05-26T04:28:37.199Z,8.83
2018-05-26T04:33:20.520Z,7.10
2018-05-26T04:38:04.645Z,6.53
2018-05-26T04:42:47.965Z,6.97
2018-05-26T04:47:31.283Z,6.57
2018-05-26T04:52:15.369Z,6.23
2018-05-26T04:56:58.639Z,7.00
2018-05-26T05:01:42.007Z,9.87
2018-05-26T05:06:26.074Z,6.93
2018-05-26T05:11:09.449Z,6.63
2018-05-26T05:15:52.725Z,6.50
2018-05-26T05:20:36.893Z,7.77
2018-05-26T05:25:20.207Z,7.57
2018-05-26T05:30:03.547Z,7.47
2018-05-26T05:34:46.862Z,7.00
2018-05-26T05:39:30.183Z,11.17
2018-05-26T05:44:13.471Z,6.70
2018-05-26T05:48:56.873Z,9.60
2018-05-26T05:53:40.915Z,9.13
2018-05-26T05:58:25.010Z,12.27
2018-05-26T06:03:08.358Z,16.03
2018-05-26T06:07:51.738Z,15.03
2018-05-26T06:12:35.977Z,10.73
2018-05-26T06:17:19.407Z,7.73
2018-05-26T06:22:02.752Z,7.07
2018-05-26T06:26:46.062Z,6.30
2018-05-26T06:31:30.208Z,5.87
2018-05-26T06:36:13.644Z,7.73
2018-05-26T06:40:57.778Z,6.73
2018-05-26T06:45:41.928Z,5.53
2018-05-26T06:50:25.432Z,5.20
2018-05-26T06:55:08.715Z,6.30
2018-05-26T06:59:52.076Z,7.90
2018-05-26T07:04:35.381Z,7.37
2018-05-26T07:09:18.726Z,5.30
2018-05-26T07:14:02.829Z,7.57
2018-05-26T07:18:46.950Z,5.00
2018-05-26T07:23:30.261Z,6.13
2018-05-26T07:28:13.622Z,5.27
2018-05-26T07:32:58.190Z,4.83
2018-05-26T07:37:41.786Z,4.87
2018-05-26T07:42:26.773Z,4.83
2018-05-26T07:47:10.121Z,4.63
2018-05-26T07:51:53.510Z,5.80
2018-05-26T07:56:37.520Z,6.60
2018-05-26T08:01:20.842Z,4.27
2018-05-26T08:06:04.186Z,5.83
2018-05-26T08:10:48.333Z,5.10
2018-05-26T08:15:32.424Z,4.80
2018-05-26T08:20:15.717Z,4.32
2018-05-26T08:24:59.837Z,5.28
2018-05-26T08:29:43.270Z,4.68
2018-05-26T08:34:26.616Z,4.10
2018-05-26T08:39:09.946Z,5.30
2018-05-26T08:43:53.255Z,7.15
2018-05-26T08:48:37.338Z,4.97
2018-05-26T08:53:20.655Z,6.93
2018-05-26T08:58:04.688Z,4.57
2018-05-26T09:02:48.790Z,5.57
2018-05-26T09:07:32.101Z,4.57
2018-05-26T09:12:16.182Z,6.95
2018-05-26T09:16:59.521Z,5.28
2018-05-26T09:21:42.858Z,4.85
2018-05-26T09:26:26.424Z,6.57
2018-05-26T09:31:10.820Z,4.75
2018-05-26T09:35:54.155Z,5.43
2018-05-26T09:40:37.472Z,4.15
2018-05-26T09:45:20.920Z,5.07
2018-05-26T09:50:04.342Z,6.47
2018-05-26T09:54:47.724Z,3.78
2018-05-26T09:59:31.205Z,4.25
2018-05-26T10:04:15.335Z,4.97
2018-05-26T10:08:58.745Z,4.68
2018-05-26T10:13:42.634Z,4.00
2018-05-26T10:18:26.755Z,4.60
2018-05-26T10:23:10.111Z,3.53
2018-05-26T10:27:54.252Z,3.50
2018-05-26T10:32:37.659Z,3.30
2018-05-26T10:37:21.066Z,3.95
2018-05-26T10:42:04.443Z,3.65
2018-05-26T10:46:48.987Z,5.12
2018-05-26T10:51:32.637Z,3.72
2018-05-26T10:56:19.189Z,5.55
2018-05-26T11:01:02.487Z,4.60
2018-05-26T11:05:45.853Z,5.47
2018-05-26T11:10:30.167Z,3.35
2018-05-26T11:15:13.926Z,4.00
2018-05-26T11:19:57.303Z,3.72
2018-05-26T11:24:41.584Z,3.37
2018-05-26T11:29:25.696Z,6.75
2018-05-26T11:34:13.108Z,3.78
2018-05-26T11:38:56.849Z,3.55
2018-05-26T11:43:40.245Z,3.45
2018-05-26T11:48:23.694Z,4.30
2018-05-26T11:53:07.037Z,4.53
2018-05-26T11:57:51.459Z,4.80
2018-05-26T12:02:37.739Z,3.72
2018-05-26T12:07:21.050Z,3.47
2018-05-26T12:12:04.528Z,4.82
2018-05-26T12:16:48.321Z,3.60
2018-05-26T12:21:32.443Z,3.40
2018-05-26T12:26:15.834Z,3.90
2018-05-26T12:31:01.030Z,4.25
2018-05-26T12:35:44.465Z,3.90
2018-05-26T12:40:28.740Z,4.22
2018-05-26T12:45:12.795Z,3.60
2018-05-26T12:49:56.946Z,3.45
2018-05-26T12:54:42.878Z,5.07
2018-05-26T12:59:30.538Z,4.12
2018-05-26T13:04:14.649Z,5.15
2018-05-26T13:08:58.062Z,3.67
2018-05-26T13:13:41.504Z,4.30
2018-05-26T13:18:24.959Z,4.18
2018-05-26T13:23:09.215Z,4.43
2018-05-26T13:27:52.592Z,3.55
2018-05-26T13:32:36.735Z,3.95
2018-05-26T13:37:20.117Z,3.65
2018-05-26T13:42:03.493Z,3.60
2018-05-26T13:46:46.835Z,3.47
2018-05-26T13:51:30.186Z,3.53
2018-05-26T13:56:13.574Z,5.62
2018-05-26T14:00:56.890Z,4.03
2018-05-26T14:05:40.229Z,4.28
2018-05-26T14:10:24.302Z,4.35
2018-05-26T14:15:07.787Z,3.87
2018-05-26T14:19:51.099Z,3.90
2018-05-26T14:24:34.486Z,4.53
2018-05-26T14:29:17.890Z,4.10
2018-05-26T14:34:01.299Z,3.78
2018-05-26T14:38:45.428Z,4.90
2018-05-26T14:43:29.762Z,4.32
2018-05-26T14:48:13.930Z,3.65
2018-05-26T14:52:57.314Z,4.10
2018-05-26T14:57:40.693Z,4.22
2018-05-26T15:02:24.175Z,5.15
2018-05-26T15:07:07.592Z,3.37
2018-05-26T15:11:51.800Z,3.83
2018-05-26T15:16:35.965Z,4.15
2018-05-26T15:21:20.114Z,3.70
2018-05-26T15:26:04.245Z,3.80
2018-05-26T15:30:48.697Z,4.07
2018-05-26T15:35:32.074Z,3.92
2018-05-26T15:40:16.786Z,3.33
2018-05-26T15:45:00.680Z,4.28
2018-05-26T15:49:44.035Z,4.68
2018-05-26T15:54:28.150Z,5.00
2018-05-26T15:59:11.613Z,4.50
2018-05-26T16:03:55.826Z,5.87
2018-05-26T16:08:39.221Z,3.70
2018-05-26T16:13:23.481Z,3.78
2018-05-26T16:18:06.775Z,5.55
2018-05-26T16:22:50.182Z,4.30
2018-05-26T16:27:33.634Z,3.58
2018-05-26T16:32:16.978Z,3.97
2018-05-26T16:37:00.384Z,3.92
2018-05-26T16:41:43.844Z,3.92
2018-05-26T16:46:27.295Z,3.90
2018-05-26T16:51:10.676Z,3.67
2018-05-26T16:55:53.995Z,3.90
2018-05-26T17:00:37.328Z,5.28
2018-05-26T17:05:20.784Z,4.03
2018-05-26T17:10:04.121Z,4.03
2018-05-26T17:14:48.232Z,3.80
2018-05-26T17:19:31.568Z,3.65
2018-05-26T17:24:14.898Z,4.00
2018-05-26T17:28:58.287Z,3.80
2018-05-26T17:33:41.651Z,4.37
2018-05-26T17:38:25.901Z,3.85
2018-05-26T17:43:09.343Z,3.67
2018-05-26T17:47:53.452Z,5.60
2018-05-26T17:52:36.785Z,4.60
2018-05-26T17:57:20.191Z,4.55
2018-05-26T18:02:04.381Z,4.60
2018-05-26T18:06:47.956Z,4.63
2018-05-26T18:11:31.310Z,4.60
2018-05-26T18:16:14.599Z,5.33
2018-05-26T18:20:58.804Z,4.47
2018-05-26T18:25:42.332Z,4.70
2018-05-26T18:30:26.644Z,4.97
2018-05-26T18:35:10.015Z,4.63
2018-05-26T18:39:54.064Z,5.23
2018-05-26T18:44:37.525Z,5.23
2018-05-26T18:49:20.975Z,4.97
2018-05-26T18:54:05.120Z,5.60
2018-05-26T18:58:49.344Z,7.67
2018-05-26T19:03:33.510Z,9.47
2018-05-26T19:08:17.672Z,9.07
2018-05-26T19:13:01.536Z,8.00
2018-05-26T19:17:44.945Z,7.00
2018-05-26T19:22:29.194Z,6.27
2018-05-26T19:27:12.560Z,5.87
2018-05-26T19:31:56.926Z,7.30
2018-05-26T19:36:40.369Z,6.93
2018-05-26T19:41:23.826Z,6.90
2018-05-26T19:46:07.611Z,7.73
2018-05-26T19:50:51.064Z,7.87
2018-05-26T19:55:36.984Z,7.63
2018-05-26T20:00:20.462Z,8.23
2018-05-26T20:05:03.902Z,7.27
2018-05-26T20:09:47.501Z,7.20
2018-05-26T20:14:31.892Z,8.47
2018-05-26T20:19:16.320Z,7.67
2018-05-26T20:23:59.742Z,6.80
2018-05-26T20:28:43.254Z,8.03
2018-05-26T20:33:26.780Z,9.10
2018-05-26T20:38:10.323Z,9.17
2018-05-26T20:42:53.783Z,7.40
2018-05-26T20:47:37.239Z,7.37
2018-05-26T20:52:20.696Z,7.47
2018-05-26T20:57:04.130Z,8.23
2018-05-26T21:01:47.590Z,7.33
2018-05-26T21:06:31.097Z,10.13
2018-05-26T21:11:14.591Z,11.93
2018-05-26T21:15:57.951Z,12.00
2018-05-26T21:20:41.398Z,11.63
2018-05-26T21:25:24.863Z,12.23
2018-05-26T21:30:08.511Z,13.60
2018-05-26T21:34:51.967Z,10.93
2018-05-26T21:39:35.459Z,8.90
2018-05-26T21:44:18.811Z,9.33
2018-05-26T21:49:02.139Z,9.30
2018-05-26T21:53:45.703Z,9.17
2018-05-26T21:58:29.124Z,9.73
2018-05-26T22:03:12.575Z,9.87
2018-05-26T22:07:56.880Z,9.50
2018-05-26T22:12:40.332Z,10.20
2018-05-26T22:17:25.495Z,10.13
2018-05-26T22:22:09.655Z,9.50
2018-05-26T22:26:53.857Z,9.77
2018-05-26T22:31:37.323Z,9.70
2018-05-26T22:36:20.803Z,9.80
2018-05-26T22:41:04.923Z,9.97
2018-05-26T22:45:48.315Z,11.77
2018-05-26T22:50:31.752Z,12.70
2018-05-26T22:55:15.121Z,12.77
2018-05-26T22:59:58.450Z,13.37
2018-05-26T23:04:41.815Z,11.60
2018-05-26T23:09:25.142Z,11.73
2018-05-26T23:14:08.487Z,11.50
2018-05-26T23:18:51.844Z,10.17
2018-05-26T23:23:35.182Z,11.47
2018-05-26T23:28:18.516Z,11.17
2018-05-26T23:33:01.839Z,10.93
2018-05-26T23:37:45.210Z,10.27
2018-05-26T23:42:28.532Z,10.20
2018-05-26T23:47:11.830Z,10.10
2018-05-26T23:51:55.160Z,10.33
2018-05-26T23:56:38.474Z,10.60
